Decoded Metar for EVRA (RIGA AIRPORT in LATVIA) (IATA:N/A) | Meteo·Mobile Aviation Weather
aviador You're here:

EVRA Decoded Metar

RIGA AIRPORT in LATVIA
Report Time2018-10-18 15:20:00
UTC Time2018-10-18 15:30:32
Flight Rules vfr VFR
Wind220° at 02 kt
W.Decomp.*RWY 18: 1.7 kt HW 1.1 kt RCW
W.Rank220° ranks 6
Current wind is below 220° avg. (6.0)
Visibility9999 m
Phenomena:N/A
Clouds:N/A
Expected CloudBase > 2,400 ft AGL from Temp-Dew spread
CeilingNone
Temp15°C (ISA 0)
Dew Point09°C (68% RH)
AAT14.1°C
QNH1016 hPa
Density Alt95 ft
Elevation33 ft
Report Wrong Elevation
Raw Report
METAR EVRA 181520Z 22002KT CAVOK 15/09 Q1016 R18/090095 NOSIG=

Extra information for EVRA:More info

Metar Taf Metar & Taf Last 4 Metars F.Rules Stats Wind Profile Meteogram Temp Stats Airport Information Weather charts Add Link Nearby VenuesMetar ALERT Operation Metar Decoded Social comments